< < Back
Terminal Aerodrome Forecast


Current Version              Previous Versions:   1  2  3  4  5  6  7  8  9  

Terminal Aerodrome Forecast

386
FTUS42 KGSP 042359 AAC
TAFGSP
TAF AMD
KGSP 042359Z 0500/0524 21008KT P6SM BKN060
     FM050600 21009KT P6SM OVC008
     FM050900 21007KT 4SM BR OVC003
     FM051000 21006KT 4SM -RA BR OVC003
     FM051300 26007KT 3SM -RA BR OVC003
     FM051500 35008KT 3SM -RA BR OVC008
     FM052200 02008KT 4SM BR OVC008=



Latest METAR

758
SAUS70 KWBC 050200 RRV
MTRGSP
METAR KGSP 050153Z 21011KT 10SM CLR 19/15 A2989 RMK AO2 SLP114
T01890150


USA.gov is the U.S. government's official web portal to all federal, state and local government web resources and services.